RSC849 GCLP-GCTS
Flight info
| Callsign | RSC849 |
|---|---|
| Flight time | 0h 24m |
| Altitude | 9000 |
| Route | GDV DCT TFS |
| Aircraft | AT76/M-SDFGIRY/S |
Departure
| Time | 2026-05-05 16:09 |
|---|---|
| Airport | Gran Canaria Airport (GCLP) |
Arrival
| Time | 2026-05-05 16:33 |
|---|---|
| Airport | Tenerife Sur Airport (GCTS) |
| Time | Latitude | Longitude | Altitude | Speed | Heading |
|---|---|---|---|---|---|
| 2026-05-05 15:38 | 27.94116 | -15.38688 | 81 ft | 0 kts | 291° |
| 2026-05-05 16:01 | 27.94117 | -15.38691 | 85 ft | 1 kts | 291° |
| 2026-05-05 16:01 | 27.94114 | -15.38681 | 80 ft | 4 kts | 291° |
| 2026-05-05 16:01 | 27.94111 | -15.38674 | 85 ft | 6 kts | 291° |
| 2026-05-05 16:02 | 27.94107 | -15.38662 | 82 ft | 0 kts | 291° |
| 2026-05-05 16:02 | 27.94107 | -15.38663 | 82 ft | 4 kts | 291° |
| 2026-05-05 16:02 | 27.94102 | -15.38635 | 70 ft | 4 kts | 202° |
| 2026-05-05 16:02 | 27.93993 | -15.38660 | 72 ft | 24 kts | 201° |
| 2026-05-05 16:03 | 27.93841 | -15.38726 | 81 ft | 23 kts | 200° |
| 2026-05-05 16:03 | 27.93692 | -15.38791 | 81 ft | 23 kts | 201° |
| 2026-05-05 16:03 | 27.93546 | -15.38858 | 82 ft | 22 kts | 202° |
| 2026-05-05 16:03 | 27.93432 | -15.38809 | 74 ft | 19 kts | 109° |
| 2026-05-05 16:04 | 27.93402 | -15.38758 | 69 ft | 11 kts | 159° |
| 2026-05-05 16:04 | 27.93309 | -15.38797 | 67 ft | 16 kts | 200° |
| 2026-05-05 16:04 | 27.93196 | -15.38849 | 69 ft | 19 kts | 201° |
| 2026-05-05 16:04 | 27.93076 | -15.38908 | 74 ft | 18 kts | 200° |
| 2026-05-05 16:05 | 27.92958 | -15.38960 | 73 ft | 19 kts | 202° |
| 2026-05-05 16:05 | 27.92838 | -15.39015 | 82 ft | 18 kts | 201° |
| 2026-05-05 16:05 | 27.92720 | -15.39065 | 83 ft | 18 kts | 201° |
| 2026-05-05 16:05 | 27.92608 | -15.39115 | 89 ft | 17 kts | 200° |
| 2026-05-05 16:06 | 27.92498 | -15.39163 | 93 ft | 17 kts | 200° |
| 2026-05-05 16:06 | 27.92385 | -15.39211 | 95 ft | 17 kts | 201° |
| 2026-05-05 16:06 | 27.92273 | -15.39261 | 96 ft | 18 kts | 202° |
| 2026-05-05 16:06 | 27.92150 | -15.39308 | 95 ft | 20 kts | 185° |
| 2026-05-05 16:07 | 27.92018 | -15.39299 | 88 ft | 0 kts | 176° |
| 2026-05-05 16:07 | 27.92011 | -15.39298 | 87 ft | 0 kts | 176° |
| 2026-05-05 16:07 | 27.91998 | -15.39298 | 87 ft | 6 kts | 177° |
| 2026-05-05 16:07 | 27.91932 | -15.39286 | 85 ft | 12 kts | 153° |
| 2026-05-05 16:08 | 27.91934 | -15.39214 | 84 ft | 8 kts | 37° |
| 2026-05-05 16:08 | 27.91976 | -15.39194 | 81 ft | 8 kts | 21° |
| 2026-05-05 16:08 | 27.92228 | -15.39082 | 72 ft | 70 kts | 21° |
| 2026-05-05 16:08 | 27.92860 | -15.38810 | 97 ft | 118 kts | 21° |
| 2026-05-05 16:09 | 27.93685 | -15.38500 | 404 ft | 133 kts | 21° |
| 2026-05-05 16:09 | 27.94586 | -15.38148 | 920 ft | 138 kts | 20° |
| 2026-05-05 16:09 | 27.95515 | -15.37750 | 1095 ft | 153 kts | 21° |
| 2026-05-05 16:09 | 27.96549 | -15.37304 | 1340 ft | 160 kts | 19° |
| 2026-05-05 16:10 | 27.97603 | -15.36862 | 1691 ft | 163 kts | 20° |
| 2026-05-05 16:10 | 27.98653 | -15.36401 | 2035 ft | 164 kts | 21° |
| 2026-05-05 16:10 | 27.99701 | -15.35938 | 2461 ft | 160 kts | 20° |
| 2026-05-05 16:10 | 28.00756 | -15.35506 | 2768 ft | 164 kts | 19° |
| 2026-05-05 16:11 | 28.01838 | -15.35017 | 3013 ft | 172 kts | 21° |
| 2026-05-05 16:11 | 28.05194 | -15.34072 | 4296 ft | 156 kts | 353° |
| 2026-05-05 16:12 | 28.06100 | -15.34758 | 4397 ft | 175 kts | 299° |
| 2026-05-05 16:12 | 28.06168 | -15.37688 | 4691 ft | 196 kts | 266° |
| 2026-05-05 16:13 | 28.05695 | -15.42100 | 5790 ft | 188 kts | 263° |
| 2026-05-05 16:13 | 28.05517 | -15.43574 | 6130 ft | 189 kts | 263° |
| 2026-05-05 16:13 | 28.05339 | -15.45049 | 6447 ft | 189 kts | 262° |
| 2026-05-05 16:14 | 28.05565 | -15.47900 | 7028 ft | 183 kts | 283° |
| 2026-05-05 16:14 | 28.05550 | -15.50781 | 7422 ft | 188 kts | 267° |
| 2026-05-05 16:15 | 28.05449 | -15.53768 | 7931 ft | 191 kts | 266° |
| 2026-05-05 16:15 | 28.05342 | -15.56785 | 8433 ft | 192 kts | 266° |
| 2026-05-05 16:16 | 28.05236 | -15.59785 | 8897 ft | 195 kts | 266° |
| 2026-05-05 16:16 | 28.05145 | -15.62970 | 9001 ft | 211 kts | 266° |
| 2026-05-05 16:17 | 28.05043 | -15.66397 | 9028 ft | 224 kts | 266° |
| 2026-05-05 16:17 | 28.04982 | -15.68175 | 8992 ft | 227 kts | 266° |
| 2026-05-05 16:18 | 28.04858 | -15.71792 | 9043 ft | 234 kts | 266° |
| 2026-05-05 16:18 | 28.04795 | -15.73650 | 9027 ft | 237 kts | 266° |
| 2026-05-05 16:18 | 28.04661 | -15.77405 | 9018 ft | 240 kts | 266° |
| 2026-05-05 16:19 | 28.04593 | -15.79295 | 9023 ft | 240 kts | 266° |
| 2026-05-05 16:19 | 28.04525 | -15.81187 | 9021 ft | 240 kts | 266° |
| 2026-05-05 16:19 | 28.04387 | -15.84972 | 9020 ft | 241 kts | 266° |
| 2026-05-05 16:20 | 28.04244 | -15.88740 | 9022 ft | 241 kts | 266° |
| 2026-05-05 16:20 | 28.04098 | -15.92534 | 9021 ft | 241 kts | 266° |
| 2026-05-05 16:21 | 28.03934 | -15.96329 | 9021 ft | 241 kts | 266° |
| 2026-05-05 16:22 | 28.03728 | -16.02026 | 9003 ft | 242 kts | 266° |
| 2026-05-05 16:22 | 28.03586 | -16.05949 | 8408 ft | 251 kts | 266° |
| 2026-05-05 16:23 | 28.03432 | -16.09864 | 7822 ft | 250 kts | 266° |
| 2026-05-05 16:23 | 28.03404 | -16.10529 | 7724 ft | 250 kts | 266° |
| 2026-05-05 16:23 | 28.03275 | -16.13383 | 7305 ft | 250 kts | 266° |
| 2026-05-05 16:24 | 28.03180 | -16.15353 | 6943 ft | 251 kts | 266° |
| 2026-05-05 16:24 | 28.03077 | -16.17318 | 6592 ft | 250 kts | 266° |
| 2026-05-05 16:24 | 28.02849 | -16.21255 | 5854 ft | 251 kts | 266° |
| 2026-05-05 16:25 | 28.02720 | -16.23227 | 5485 ft | 252 kts | 266° |
| 2026-05-05 16:25 | 28.02495 | -16.26488 | 5019 ft | 248 kts | 266° |
| 2026-05-05 16:25 | 28.02355 | -16.28426 | 4753 ft | 247 kts | 266° |
| 2026-05-05 16:26 | 28.02061 | -16.32280 | 4201 ft | 245 kts | 266° |
| 2026-05-05 16:26 | 28.01747 | -16.36103 | 3720 ft | 241 kts | 266° |
| 2026-05-05 16:27 | 28.01586 | -16.37978 | 3522 ft | 238 kts | 266° |
| 2026-05-05 16:27 | 28.01424 | -16.39838 | 3341 ft | 236 kts | 266° |
| 2026-05-05 16:27 | 28.01262 | -16.41684 | 3162 ft | 235 kts | 266° |
| 2026-05-05 16:27 | 28.01092 | -16.43501 | 3082 ft | 230 kts | 266° |
| 2026-05-05 16:28 | 28.00922 | -16.45286 | 3028 ft | 226 kts | 266° |
| 2026-05-05 16:28 | 28.00755 | -16.47038 | 3013 ft | 222 kts | 266° |
| 2026-05-05 16:28 | 28.00589 | -16.48758 | 3004 ft | 218 kts | 265° |
| 2026-05-05 16:28 | 28.00424 | -16.50445 | 2981 ft | 214 kts | 266° |
| 2026-05-05 16:29 | 28.00258 | -16.52103 | 3005 ft | 211 kts | 265° |
| 2026-05-05 16:29 | 28.00095 | -16.53746 | 2961 ft | 211 kts | 266° |
| 2026-05-05 16:29 | 27.99946 | -16.55308 | 2828 ft | 187 kts | 266° |
| 2026-05-05 16:29 | 27.99801 | -16.56694 | 2637 ft | 168 kts | 262° |
| 2026-05-05 16:30 | 27.99549 | -16.57919 | 2476 ft | 152 kts | 258° |
| 2026-05-05 16:30 | 27.99273 | -16.59026 | 2294 ft | 142 kts | 258° |
| 2026-05-05 16:30 | 27.99009 | -16.60052 | 2193 ft | 129 kts | 264° |
| 2026-05-05 16:30 | 27.99306 | -16.60908 | 2017 ft | 119 kts | 327° |
| 2026-05-05 16:31 | 28.00031 | -16.61218 | 1823 ft | 108 kts | 343° |
| 2026-05-05 16:31 | 28.00683 | -16.61459 | 1711 ft | 100 kts | 344° |
| 2026-05-05 16:31 | 28.01361 | -16.61710 | 1554 ft | 104 kts | 346° |
| 2026-05-05 16:31 | 28.02079 | -16.61956 | 1170 ft | 111 kts | 357° |
| 2026-05-05 16:32 | 28.02734 | -16.61580 | 878 ft | 111 kts | 43° |
| 2026-05-05 16:32 | 28.03194 | -16.60853 | 644 ft | 117 kts | 67° |
| 2026-05-05 16:32 | 28.03500 | -16.60004 | 542 ft | 118 kts | 74° |
| 2026-05-05 16:32 | 28.03782 | -16.59124 | 337 ft | 117 kts | 72° |
| 2026-05-05 16:33 | 28.04088 | -16.58290 | 195 ft | 110 kts | 70° |
| 2026-05-05 16:33 | 28.04297 | -16.57671 | 198 ft | 57 kts | 68° |
| 2026-05-05 16:33 | 28.04424 | -16.57313 | 200 ft | 42 kts | 68° |
| 2026-05-05 16:33 | 28.04530 | -16.57052 | 203 ft | 31 kts | 58° |
| 2026-05-05 16:34 | 28.04645 | -16.56893 | 212 ft | 20 kts | 49° |
| 2026-05-05 16:34 | 28.04712 | -16.56807 | 211 ft | 14 kts | 43° |
| 2026-05-05 16:34 | 28.04772 | -16.56875 | 218 ft | 24 kts | 245° |
| 2026-05-05 16:34 | 28.04696 | -16.57083 | 219 ft | 30 kts | 245° |
| 2026-05-05 16:35 | 28.04618 | -16.57286 | 219 ft | 27 kts | 248° |
| 2026-05-05 16:35 | 28.04554 | -16.57469 | 219 ft | 24 kts | 247° |
| 2026-05-05 16:35 | 28.04498 | -16.57632 | 219 ft | 21 kts | 249° |
| 2026-05-05 16:35 | 28.04462 | -16.57737 | 219 ft | 11 kts | 250° |
| 2026-05-05 16:36 | 28.04490 | -16.57793 | 219 ft | 10 kts | 339° |
| 2026-05-05 16:36 | 28.04511 | -16.57802 | 219 ft | 0 kts | 339° |